Time;durP1;ratioP1;P1;durP2;ratioP2;P2;SDS_P1;SDS_P2;PMS_P1;PMS_P2;Temp;Humidity;BMP_temperature;BMP_pressure;BME280_temperature;BME280_humidity;BME280_pressure;Samples;Min_cycle;Max_cycle;Signal;HPM_P1;HPM_P2
2021/07/17 00:00:53;;;;;;;16.33;12.30;;;;;;;22.32;73.63;99281.32;129821;1092;22519;-64
2021/07/17 00:03:22;;;;;;;23.23;13.68;;;;;;;22.30;73.74;99281.66;129673;1093;114254;-64
2021/07/17 00:05:51;;;;;;;23.30;13.38;;;;;;;22.28;73.62;99275.64;129854;1093;22600;-64
2021/07/17 00:08:20;;;;;;;21.53;14.08;;;;;;;22.28;73.86;99280.38;129664;1093;116078;-63
2021/07/17 00:10:58;;;;;;;21.55;13.70;;;;;;;22.24;73.90;99277.46;129783;1092;22600;-63
2021/07/17 00:13:27;;;;;;;15.98;13.73;;;;;;;22.21;73.97;99280.94;129711;1093;23048;-63
2021/07/17 00:15:58;;;;;;;18.20;13.40;;;;;;;22.18;74.03;99279.66;129729;1093;114178;-63
2021/07/17 00:18:27;;;;;;;21.68;13.60;;;;;;;22.17;74.09;99274.44;129832;1093;22571;-63
2021/07/17 00:20:56;;;;;;;19.65;13.55;;;;;;;22.15;74.08;99272.00;129676;1092;114351;-63
2021/07/17 00:23:24;;;;;;;20.73;12.60;;;;;;;22.15;74.18;99273.97;129838;1093;22533;-63
2021/07/17 00:25:55;;;;;;;18.73;12.23;;;;;;;22.10;74.02;99265.84;129683;1093;114207;-62
2021/07/17 00:28:23;;;;;;;16.48;12.93;;;;;;;22.13;74.18;99268.75;129815;1092;22562;-63
2021/07/17 00:30:52;;;;;;;17.25;13.38;;;;;;;22.12;74.18;99269.91;129808;1092;23440;-63
2021/07/17 00:33:21;;;;;;;19.55;12.50;;;;;;;22.09;74.23;99270.58;129704;1093;113999;-63
2021/07/17 00:35:50;;;;;;;17.43;13.18;;;;;;;22.08;74.43;99270.91;129774;1093;22574;-62
2021/07/17 00:38:19;;;;;;;15.80;13.08;;;;;;;22.07;74.50;99267.36;129708;1092;114210;-63
2021/07/17 00:40:48;;;;;;;15.43;12.85;;;;;;;22.07;74.53;99267.36;129776;1092;22587;-63
2021/07/17 00:43:17;;;;;;;13.75;12.38;;;;;;;22.05;74.61;99261.34;129816;1093;22553;-63
2021/07/17 00:45:46;;;;;;;15.80;12.68;;;;;;;22.03;74.68;99260.86;129682;1092;114490;-63
2021/07/17 00:48:15;;;;;;;19.18;13.35;;;;;;;22.03;74.71;99260.86;129818;1093;22562;-62
2021/07/17 00:50:44;;;;;;;18.03;12.63;;;;;;;22.01;74.72;99259.57;129680;1092;115361;-63
2021/07/17 00:53:13;;;;;;;27.58;13.60;;;;;;;21.98;74.67;99262.98;129859;1093;22497;-63
2021/07/17 00:55:45;;;;;;;31.05;13.93;;;;;;;21.94;74.81;99259.26;129681;1093;114413;-62
2021/07/17 00:58:17;;;;;;;38.30;16.38;;;;;;;21.94;74.88;99262.03;129810;1092;23656;-63
2021/07/17 01:00:46;;;;;;;53.85;16.38;;;;;;;21.94;74.92;99259.26;129764;1093;23101;-63
2021/07/17 01:03:15;;;;;;;64.30;16.78;;;;;;;21.92;74.99;99256.85;129623;1093;114195;-63
2021/07/17 01:05:46;;;;;;;63.15;18.38;;;;;;;21.91;75.12;99263.55;129744;1092;22954;-63
2021/07/17 01:08:19;;;;;;;49.63;15.60;;;;;;;21.91;75.21;99266.33;129731;1093;114441;-63
2021/07/17 01:10:51;;;;;;;39.43;14.80;;;;;;;21.91;75.28;99260.78;129747;1092;22577;-63
2021/07/17 01:13:19;;;;;;;61.30;16.05;;;;;;;21.90;75.34;99264.70;129784;1093;22557;-63
2021/07/17 01:15:48;;;;;;;43.15;15.25;;;;;;;21.89;75.24;99268.63;129688;1093;114506;-63
2021/07/17 01:18:17;;;;;;;48.45;16.08;;;;;;;21.86;75.23;99259.01;129721;1093;22567;-63
2021/07/17 01:20:46;;;;;;;44.88;16.53;;;;;;;21.84;75.44;99260.49;129719;1092;114360;-62
2021/07/17 01:23:15;;;;;;;39.18;15.73;;;;;;;21.81;75.36;99252.84;129760;1093;22551;-62
2021/07/17 01:25:44;;;;;;;36.60;14.78;;;;;;;21.77;75.55;99255.51;130290;1089;114027;-62
2021/07/17 01:28:13;;;;;;;37.65;15.23;;;;;;;21.77;75.61;99261.05;130402;1087;22562;-63
2021/07/17 01:30:42;;;;;;;35.30;14.10;;;;;;;21.76;75.74;99264.98;130484;1087;22568;-63
2021/07/17 01:33:11;;;;;;;33.90;13.75;;;;;;;21.75;75.63;99266.13;130357;1085;114138;-62
2021/07/17 01:35:40;;;;;;;33.78;14.23;;;;;;;21.75;75.62;99256.98;130500;1087;22534;-62
2021/07/17 01:38:09;;;;;;;36.98;14.05;;;;;;;21.74;76.24;99258.14;130325;1090;114634;-63
2021/07/17 01:40:38;;;;;;;40.00;14.60;;;;;;;21.75;75.80;99256.98;127501;1087;22813;-63
2021/07/17 01:43:07;;;;;;;36.85;14.30;;;;;;;21.76;75.97;99258.61;125870;1087;26230;-64
2021/07/17 01:45:39;;;;;;;50.88;15.75;;;;;;;21.76;76.05;99264.16;125712;1087;114271;-64
2021/07/17 01:48:08;;;;;;;51.63;15.95;;;;;;;21.74;75.98;99258.14;125752;1087;22854;-62
2021/07/17 01:50:41;;;;;;;58.35;16.38;;;;;;;21.73;75.97;99256.52;125763;1085;114289;-62
2021/07/17 01:53:11;;;;;;;45.40;16.80;;;;;;;21.72;76.07;99255.70;125834;1087;23056;-62
2021/07/17 01:55:41;;;;;;;50.65;17.18;;;;;;;21.71;76.15;99259.63;125739;1087;118661;-63
2021/07/17 01:58:10;;;;;;;49.90;16.08;;;;;;;21.68;76.50;99262.25;125862;1087;29278;-62
2021/07/17 02:00:39;;;;;;;58.25;18.30;;;;;;;21.67;76.26;99266.98;125723;1087;22779;-63
2021/07/17 02:03:08;;;;;;;48.20;15.83;;;;;;;21.66;76.39;99267.32;130328;1088;114380;-63
2021/07/17 02:05:37;;;;;;;39.45;14.80;;;;;;;21.65;76.20;99262.92;130465;1090;22551;-63
2021/07/17 02:08:10;;;;;;;46.08;16.28;;;;;;;21.62;76.37;99267.20;130325;1087;114387;-64
2021/07/17 02:10:40;;;;;;;52.28;16.35;;;;;;;21.61;76.67;99254.48;130513;1085;22563;-64
2021/07/17 02:13:10;;;;;;;42.83;16.05;;;;;;;21.62;76.66;99258.88;130509;1087;22527;-62
2021/07/17 02:15:50;;;;;;;39.73;16.65;;;;;;;21.63;76.39;99259.70;130346;1087;114120;-62
2021/07/17 02:18:26;;;;;;;51.90;17.03;;;;;;;21.62;76.54;99263.62;130423;1087;22587;-62
2021/07/17 02:20:55;;;;;;;37.60;15.28;;;;;;;21.62;76.54;99258.08;130384;1085;114126;-62
2021/07/17 02:23:24;;;;;;;51.88;17.60;;;;;;;21.64;76.55;99261.33;130463;1087;22626;-63
2021/07/17 02:25:54;;;;;;;43.30;16.13;;;;;;;21.65;76.57;99274.83;130356;1087;114434;-62
2021/07/17 02:28:23;;;;;;;53.38;17.48;;;;;;;21.67;76.69;99266.17;130497;1087;22612;-61
2021/07/17 02:30:52;;;;;;;37.58;16.73;;;;;;;21.71;76.74;99267.94;130518;1086;23316;-62
2021/07/17 02:33:21;;;;;;;54.28;18.08;;;;;;;21.76;76.79;99272.48;130408;1085;114126;-62
2021/07/17 02:35:50;;;;;;;52.13;17.40;;;;;;;21.78;76.84;99276.55;130481;1087;22601;-62
2021/07/17 02:39:07;;;;;;;54.90;17.30;;;;;;;21.81;76.73;99263.94;125431;1090;22967;-55
2021/07/17 02:41:36;;;;;;;42.90;17.05;;;;;;;21.83;76.72;99251.36;129730;1092;23105;-62
2021/07/17 02:44:05;;;;;;;59.45;17.88;;;;;;;21.85;76.60;99257.39;129712;1092;114012;-61
2021/07/17 02:46:34;;;;;;;47.10;17.60;;;;;;;21.87;76.59;99254.28;129803;1092;22565;-61
2021/07/17 02:49:03;;;;;;;42.03;16.70;;;;;;;21.91;76.78;99258.00;129811;1092;22968;-62
2021/07/17 02:51:33;;;;;;;48.50;17.20;;;;;;;21.95;76.87;99263.66;129658;1093;113832;-62
2021/07/17 02:54:01;;;;;;;43.53;19.45;;;;;;;21.94;77.06;99251.75;129822;1093;22565;-62
2021/07/17 02:56:30;;;;;;;31.45;15.80;;;;;;;22.03;76.84;99266.41;129713;1093;113782;-62
2021/07/17 02:58:59;;;;;;;41.40;15.58;;;;;;;22.09;77.04;99259.48;129846;1093;22560;-62
2021/07/17 03:01:28;;;;;;;38.65;17.03;;;;;;;22.15;77.15;99260.09;129805;1093;22547;-62
2021/07/17 03:03:57;;;;;;;40.75;18.05;;;;;;;22.21;77.08;99259.55;129726;1093;113587;-62
2021/07/17 03:06:26;;;;;;;41.10;16.48;;;;;;;22.28;77.09;99258.17;129787;1092;22543;-62
2021/07/17 03:08:56;;;;;;;29.55;16.18;;;;;;;22.32;77.05;99256.34;129732;1093;114368;-62
2021/07/17 03:11:25;;;;;;;36.58;16.70;;;;;;;22.37;76.97;99259.69;129813;1092;23526;-63
2021/07/17 03:13:54;;;;;;;30.68;15.75;;;;;;;22.38;77.05;99252.98;129704;1093;114031;-62
2021/07/17 03:16:23;;;;;;;30.15;15.70;;;;;;;22.50;77.09;99261.38;129788;1092;23397;-62
2021/07/17 03:18:53;;;;;;;34.00;16.70;;;;;;;22.57;77.34;99252.47;129784;1093;22637;-63
2021/07/17 03:21:22;;;;;;;23.05;13.93;;;;;;;22.64;77.21;99258.28;129691;1091;113832;-63
2021/07/17 03:23:52;;;;;;;32.08;16.13;;;;;;;22.73;77.39;99252.61;129835;1093;22990;-63
2021/07/17 03:26:21;;;;;;;36.33;15.85;;;;;;;22.82;77.22;99253.34;129689;1093;114039;-64
2021/07/17 03:28:51;;;;;;;29.93;15.78;;;;;;;22.89;76.95;99254.41;129809;1093;23667;-64
2021/07/17 03:31:29;;;;;;;25.15;16.08;;;;;;;23.00;76.87;99251.16;129789;1092;22572;-64
2021/07/17 03:33:58;;;;;;;25.15;16.93;;;;;;;23.09;76.68;99249.88;129769;1093;114038;-64
2021/07/17 03:36:28;;;;;;;30.90;17.00;;;;;;;23.18;76.88;99247.80;129790;1093;22567;-64
2021/07/17 03:38:57;;;;;;;28.53;16.85;;;;;;;23.28;76.58;99252.07;129728;1092;114002;-63
2021/07/17 03:41:25;;;;;;;24.40;16.73;;;;;;;23.38;76.47;99246.03;129753;1092;22552;-65
2021/07/17 03:43:54;;;;;;;27.85;16.88;;;;;;;23.48;75.61;99253.10;129718;1093;113885;-63
2021/07/17 03:46:23;;;;;;;28.03;17.30;;;;;;;23.58;75.02;99245.11;129839;1093;22537;-64
2021/07/17 03:48:52;;;;;;;22.83;15.60;;;;;;;23.69;74.41;99241.83;129787;1092;22552;-63
2021/07/17 03:51:21;;;;;;;29.40;16.65;;;;;;;23.80;74.59;99237.42;129703;1093;114367;-63
2021/07/17 03:53:49;;;;;;;22.45;16.20;;;;;;;23.90;74.15;99231.34;129790;1092;22588;-63
2021/07/17 03:56:22;;;;;;;22.98;15.53;;;;;;;24.01;73.77;99235.23;129775;1093;114185;-63
2021/07/17 03:58:51;;;;;;;20.78;15.65;;;;;;;24.12;73.61;99239.13;129776;1093;22672;-63
2021/07/17 04:01:20;;;;;;;19.50;13.78;;;;;;;24.22;72.71;99235.04;129796;1092;22557;-63
2021/07/17 04:03:51;;;;;;;22.43;15.13;;;;;;;24.33;72.43;99233.38;129691;1092;114101;-65
2021/07/17 04:06:20;;;;;;;19.73;14.05;;;;;;;24.44;71.37;99236.45;129832;1092;23385;-63
2021/07/17 04:08:49;;;;;;;27.70;16.55;;;;;;;24.54;70.92;99249.84;129646;1093;114025;-63
2021/07/17 04:11:18;;;;;;;24.65;16.45;;;;;;;24.64;70.80;99255.72;129845;1093;22541;-63
2021/07/17 04:13:46;;;;;;;25.70;16.13;;;;;;;24.75;70.65;99258.77;129687;1092;114377;-62
2021/07/17 04:16:16;;;;;;;22.20;15.48;;;;;;;24.87;69.94;99260.66;129771;1093;22547;-63
2021/07/17 04:18:45;;;;;;;24.05;14.85;;;;;;;24.99;69.84;99266.16;129801;1093;22571;-63
2021/07/17 04:21:14;;;;;;;23.95;16.35;;;;;;;25.09;69.78;99265.64;129708;1092;114121;-63
2021/07/17 04:23:43;;;;;;;19.08;14.30;;;;;;;25.18;69.55;99260.68;129822;1093;23685;-63
2021/07/17 04:26:15;;;;;;;17.73;13.18;;;;;;;25.27;68.25;99266.86;129732;1092;114478;-62
2021/07/17 04:28:44;;;;;;;14.18;11.95;;;;;;;25.36;68.07;99261.11;129794;1093;23551;-63
2021/07/17 04:31:13;;;;;;;13.85;12.35;;;;;;;25.44;67.97;99254.52;129748;1093;22544;-63
2021/07/17 04:33:42;;;;;;;13.73;11.78;;;;;;;25.52;67.68;99261.08;129677;1092;114251;-63
2021/07/17 04:36:11;;;;;;;16.80;11.78;;;;;;;25.58;67.33;99254.83;129799;1092;22859;-63
2021/07/17 04:38:40;;;;;;;14.28;11.83;;;;;;;25.65;66.82;99255.04;129694;1092;114003;-63
2021/07/17 04:41:09;;;;;;;15.23;11.13;;;;;;;25.71;66.40;99255.55;125950;1093;22796;-64
2021/07/17 04:43:38;;;;;;;12.70;11.40;;;;;;;25.78;66.39;99257.69;129632;1093;114063;-62
2021/07/17 04:46:10;;;;;;;12.95;11.70;;;;;;;25.83;66.47;99258.19;129807;1092;23076;-63
2021/07/17 04:48:39;;;;;;;16.00;11.75;;;;;;;25.89;65.75;99250.35;129852;1093;23280;-62
2021/07/17 04:51:08;;;;;;;15.15;11.60;;;;;;;25.95;65.94;99254.48;129652;1093;114698;-61
2021/07/17 04:53:37;;;;;;;17.98;13.03;;;;;;;26.03;65.85;99250.64;129822;1093;22668;-62
2021/07/17 04:56:07;;;;;;;16.03;12.95;;;;;;;26.08;65.30;99247.56;129706;1093;114160;-64
2021/07/17 04:58:36;;;;;;;14.15;12.45;;;;;;;26.15;64.99;99253.28;129805;1093;22616;-64
2021/07/17 05:01:05;;;;;;;19.03;12.78;;;;;;;26.22;65.37;99259.03;129804;1092;22617;-64
2021/07/17 05:03:35;;;;;;;15.95;12.75;;;;;;;26.30;64.43;99251.61;129726;1093;113962;-64
2021/07/17 05:06:05;;;;;;;17.83;11.70;;;;;;;26.37;64.08;99260.14;129772;1093;23741;-64
2021/07/17 05:08:34;;;;;;;12.90;11.13;;;;;;;26.46;63.21;99255.12;129741;1093;114083;-64
2021/07/17 05:11:03;;;;;;;15.00;11.18;;;;;;;26.54;63.10;99258.88;129833;1093;22546;-64
2021/07/17 05:13:34;;;;;;;17.98;10.73;;;;;;;26.65;63.08;99257.88;129795;1092;22523;-65
2021/07/17 05:16:04;;;;;;;19.43;10.68;;;;;;;26.79;62.48;99260.13;129650;1093;114235;-64
2021/07/17 05:18:33;;;;;;;18.13;10.60;;;;;;;26.99;62.04;99260.88;129812;1092;22575;-65
2021/07/17 05:21:02;;;;;;;18.95;11.40;;;;;;;27.25;61.63;99268.52;129662;1093;114609;-65
2021/07/17 05:23:32;;;;;;;17.00;10.38;;;;;;;27.58;61.09;99267.83;129777;1092;22585;-63
2021/07/17 05:26:00;;;;;;;17.33;12.20;;;;;;;27.97;60.08;99266.39;129669;1093;114070;-62
2021/07/17 05:28:29;;;;;;;14.30;11.53;;;;;;;28.37;58.50;99262.09;129806;1093;22532;-63
2021/07/17 05:30:58;;;;;;;18.65;11.18;;;;;;;28.77;57.86;99267.72;129787;1093;23114;-63
2021/07/17 05:33:27;;;;;;;20.18;10.45;;;;;;;29.20;56.84;99266.13;129737;1092;113971;-64
2021/07/17 05:36:00;;;;;;;15.48;10.43;;;;;;;29.61;54.46;99268.84;129795;1092;22619;-63
2021/07/17 05:38:29;;;;;;;17.08;9.75;;;;;;;29.89;52.79;99271.80;129681;1093;114157;-64
2021/07/17 05:40:58;;;;;;;21.25;9.90;;;;;;;30.04;52.27;99271.91;129794;1093;22664;-64
2021/07/17 05:43:27;;;;;;;18.13;9.95;;;;;;;30.09;52.20;99275.16;129781;1092;23067;-63
2021/07/17 05:45:56;;;;;;;18.18;10.38;;;;;;;30.10;52.42;99267.53;129722;1092;113646;-63
2021/07/17 05:48:25;;;;;;;18.60;10.68;;;;;;;30.17;52.72;99275.97;129769;1093;22580;-63
2021/07/17 05:50:54;;;;;;;13.13;9.70;;;;;;;30.27;52.16;99269.61;129676;1093;114249;-63
2021/07/17 05:53:23;;;;;;;13.00;9.23;;;;;;;30.45;51.96;99278.08;129792;1093;22587;-64
2021/07/17 05:55:52;;;;;;;15.63;10.75;;;;;;;30.72;50.49;99276.59;129736;1092;113978;-63
2021/07/17 05:58:21;;;;;;;19.15;9.20;;;;;;;31.03;49.95;99280.63;129729;1093;22548;-64
2021/07/17 06:00:49;;;;;;;15.50;9.90;;;;;;;31.37;49.44;99280.26;129825;1092;23084;-64
2021/07/17 06:03:18;;;;;;;16.20;9.65;;;;;;;31.66;48.15;99281.86;129679;1092;113609;-64
2021/07/17 06:05:47;;;;;;;14.58;9.85;;;;;;;31.86;46.68;99280.20;129807;1092;22602;-64
2021/07/17 06:08:16;;;;;;;14.65;9.60;;;;;;;31.92;46.50;99278.56;129670;1093;114158;-64
2021/07/17 06:10:45;;;;;;;14.63;9.70;;;;;;;31.96;47.30;99276.55;129819;1093;22534;-64
2021/07/17 06:13:14;;;;;;;13.48;8.65;;;;;;;31.95;46.07;99274.13;129769;1093;22592;-64
2021/07/17 06:15:43;;;;;;;13.75;9.75;;;;;;;31.91;45.42;99276.95;129719;1092;114206;-64
2021/07/17 06:18:12;;;;;;;16.50;9.85;;;;;;;31.84;45.06;99276.19;129802;1092;23296;-64
2021/07/17 06:20:41;;;;;;;16.75;9.20;;;;;;;31.71;45.54;99277.83;129722;1093;114190;-64
2021/07/17 06:23:10;;;;;;;13.23;9.70;;;;;;;31.59;45.75;99281.85;129758;1093;22566;-64
2021/07/17 06:25:39;;;;;;;11.68;8.95;;;;;;;31.45;45.54;99279.06;129793;1093;22551;-64
2021/07/17 06:28:08;;;;;;;18.00;9.08;;;;;;;31.35;46.42;99283.47;129665;1092;113667;-64
2021/07/17 06:30:37;;;;;;;13.43;8.90;;;;;;;31.18;45.66;99278.65;129803;1093;22564;-64
2021/07/17 06:33:07;;;;;;;10.25;8.40;;;;;;;31.05;45.25;99268.97;129615;1091;114133;-64
2021/07/17 06:35:35;;;;;;;10.78;8.83;;;;;;;30.89;45.96;99269.36;129811;1092;22561;-63
2021/07/17 06:38:04;;;;;;;11.23;7.95;;;;;;;30.76;45.86;99268.94;129728;1093;113996;-64
2021/07/17 06:40:33;;;;;;;18.35;8.88;;;;;;;30.64;46.54;99274.95;129789;1093;22585;-64
2021/07/17 06:43:02;;;;;;;10.08;8.55;;;;;;;30.53;47.00;99274.91;129801;1092;22543;-64
2021/07/17 06:45:31;;;;;;;10.58;9.48;;;;;;;30.41;47.79;99264.03;129711;1092;113762;-64
2021/07/17 06:47:59;;;;;;;10.00;8.23;;;;;;;30.32;47.77;99269.20;129826;1093;22552;-64
2021/07/17 06:50:28;;;;;;;9.53;8.60;;;;;;;30.24;47.31;99268.39;129657;1093;114086;-64
2021/07/17 06:52:57;;;;;;;9.93;8.88;;;;;;;30.17;47.44;99264.73;129854;1092;22541;-64
2021/07/17 06:55:26;;;;;;;17.83;9.25;;;;;;;30.09;48.05;99269.53;129763;1092;22594;-64
2021/07/17 06:57:55;;;;;;;10.60;8.45;;;;;;;30.05;48.41;99270.71;129681;1092;113985;-64
2021/07/17 07:00:24;;;;;;;11.58;8.30;;;;;;;30.04;48.16;99269.91;129830;1093;23521;-64
2021/07/17 07:02:53;;;;;;;11.13;8.38;;;;;;;30.03;47.68;99267.48;129745;1093;114027;-63
2021/07/17 07:05:23;;;;;;;11.50;8.83;;;;;;;29.98;47.84;99249.02;129781;1093;22541;-64
2021/07/17 07:07:52;;;;;;;11.68;8.90;;;;;;;30.01;48.52;99259.45;129770;1092;114114;-63
2021/07/17 07:10:21;;;;;;;8.85;7.95;;;;;;;30.06;48.17;99256.27;129770;1093;23337;-64
2021/07/17 07:12:50;;;;;;;11.08;8.75;;;;;;;30.08;47.43;99251.06;129791;1093;22575;-64
2021/07/17 07:15:19;;;;;;;12.25;9.53;;;;;;;30.06;47.59;99261.08;129731;1092;114027;-63
2021/07/17 07:17:48;;;;;;;15.43;9.10;;;;;;;30.05;47.21;99259.47;129770;1092;22581;-63
2021/07/17 07:20:16;;;;;;;13.35;8.15;;;;;;;30.03;47.52;99259.86;129670;1093;115561;-63
2021/07/17 07:22:46;;;;;;;8.75;7.43;;;;;;;30.04;46.46;99257.86;129807;1093;22516;-63
2021/07/17 07:25:16;;;;;;;14.30;8.60;;;;;;;30.04;45.85;99261.47;129771;1093;23341;-63
2021/07/17 07:27:45;;;;;;;10.00;7.65;;;;;;;30.05;46.18;99270.71;129703;1092;114277;-63
2021/07/17 07:30:14;;;;;;;11.15;6.83;;;;;;;30.05;45.78;99268.70;129777;1093;22519;-63
2021/07/17 07:32:50;;;;;;;11.38;7.73;;;;;;;30.05;45.45;99270.71;129692;1093;114284;-63
2021/07/17 07:35:20;;;;;;;9.65;7.60;;;;;;;30.04;45.78;99271.91;129843;1093;23339;-63
2021/07/17 07:37:50;;;;;;;9.23;7.33;;;;;;;30.04;45.87;99266.28;129700;1093;113961;-64
2021/07/17 07:40:19;;;;;;;8.40;7.60;;;;;;;30.03;46.04;99264.67;129782;1093;23774;-61
2021/07/17 07:42:48;;;;;;;9.53;7.75;;;;;;;30.05;45.83;99277.13;129803;1092;23159;-61
2021/07/17 07:45:17;;;;;;;8.05;6.98;;;;;;;30.03;45.25;99271.10;129754;1092;113707;-61
2021/07/17 07:47:46;;;;;;;8.43;7.53;;;;;;;30.03;46.17;99267.48;129810;1092;22626;-61
2021/07/17 07:50:15;;;;;;;9.38;7.03;;;;;;;30.06;45.75;99261.08;129672;1093;114091;-61
2021/07/17 07:52:44;;;;;;;9.85;6.78;;;;;;;30.07;45.60;99259.88;129810;1093;22552;-61
2021/07/17 07:55:17;;;;;;;8.65;7.68;;;;;;;30.07;45.53;99260.69;129833;1093;23741;-61
2021/07/17 07:57:46;;;;;;;12.53;9.73;;;;;;;30.11;46.22;99267.14;129679;1093;113792;-61
2021/07/17 08:00:15;;;;;;;11.53;8.45;;;;;;;30.12;46.30;99259.52;129833;1093;23888;-62
2021/07/17 08:02:53;;;;;;;10.05;8.58;;;;;;;30.13;46.38;99258.31;129699;1092;113336;-61
2021/07/17 08:05:23;;;;;;;10.83;9.55;;;;;;;30.15;46.33;99258.73;129781;1093;22539;-61
2021/07/17 08:07:52;;;;;;;12.55;9.70;;;;;;;30.15;45.99;99255.92;129699;1092;114022;-61
2021/07/17 08:10:21;;;;;;;15.50;9.83;;;;;;;30.16;46.32;99258.30;129823;1093;23412;-61
2021/07/17 08:13:05;;;;;;;12.45;10.15;;;;;;;30.19;47.48;99260.33;129777;1093;22566;-61
2021/07/17 08:15:36;;;;;;;19.45;9.95;;;;;;;30.24;46.81;99267.59;129719;1092;115382;-61
2021/07/17 08:18:05;;;;;;;19.73;10.28;;;;;;;30.26;46.31;99262.38;129745;1093;22532;-61
2021/07/17 08:20:33;;;;;;;10.20;9.30;;;;;;;30.27;46.39;99261.17;129689;1093;114372;-61
2021/07/17 08:23:02;;;;;;;14.85;9.25;;;;;;;30.24;46.97;99256.34;129757;1092;22560;-61
2021/07/17 08:25:31;;;;;;;12.58;8.98;;;;;;;30.23;46.86;99263.16;129843;1093;22628;-61
2021/07/17 08:28:00;;;;;;;15.78;9.05;;;;;;;30.22;47.28;99256.73;129697;1093;114092;-61
2021/07/17 08:30:29;;;;;;;13.18;8.70;;;;;;;30.25;47.40;99255.14;129809;1093;22540;-61
2021/07/17 08:33:02;;;;;;;12.05;9.18;;;;;;;30.28;47.69;99248.73;129685;1093;113968;-61
2021/07/17 08:35:31;;;;;;;18.15;9.23;;;;;;;30.35;48.69;99245.92;129806;1093;22543;-61
2021/07/17 08:38:00;;;;;;;12.75;9.10;;;;;;;30.44;49.13;99245.56;129691;1092;115563;-61
2021/07/17 08:40:29;;;;;;;31.05;12.93;;;;;;;30.52;47.04;99250.80;127174;1093;27203;-65
2021/07/17 08:42:58;;;;;;;12.33;9.30;;;;;;;30.56;46.59;99250.84;125216;1093;24480;-65
2021/07/17 08:45:27;;;;;;;12.63;9.73;;;;;;;30.54;46.73;99244.81;129605;1092;113961;-63
2021/07/17 08:47:57;;;;;;;17.03;10.28;;;;;;;30.52;47.07;99242.36;129844;1093;22653;-63
2021/07/17 08:50:27;;;;;;;16.58;10.05;;;;;;;30.53;47.24;99243.17;129668;1093;114251;-63
2021/07/17 08:52:57;;;;;;;9.93;8.93;;;;;;;30.52;46.18;99235.94;129824;1092;23060;-63
2021/07/17 08:55:26;;;;;;;10.13;8.85;;;;;;;30.48;46.39;99232.30;129812;1093;22605;-63
2021/07/17 08:57:55;;;;;;;12.20;9.08;;;;;;;30.44;45.48;99237.13;129701;1092;113922;-63
2021/07/17 09:00:34;;;;;;;10.93;8.00;;;;;;;30.44;45.94;99239.95;129806;1091;22542;-63
2021/07/17 09:03:06;;;;;;;10.08;8.43;;;;;;;30.51;45.96;99251.19;129736;1092;114122;-63
2021/07/17 09:05:42;;;;;;;14.30;8.85;;;;;;;30.57;44.70;99246.83;129747;1093;22570;-63
2021/07/17 09:08:14;;;;;;;9.73;8.35;;;;;;;30.59;43.83;99239.58;129704;1093;114188;-63
2021/07/17 09:10:50;;;;;;;11.20;7.83;;;;;;;30.59;44.46;99242.39;129765;1093;23495;-63
2021/07/17 09:13:23;;;;;;;10.13;8.93;;;;;;;30.65;44.40;99236.38;129792;1093;23155;-63
2021/07/17 09:15:56;;;;;;;8.90;8.00;;;;;;;30.72;43.87;99237.21;129692;1093;114512;-63
2021/07/17 09:18:44;;;;;;;10.70;8.40;;;;;;;30.80;44.55;99223.94;129891;1092;23699;-63
2021/07/17 09:21:14;;;;;;;13.03;7.40;;;;;;;30.89;43.70;99229.97;129660;1093;114283;-63
2021/07/17 09:23:50;;;;;;;11.50;7.73;;;;;;;30.93;42.97;99234.40;129876;1092;22720;-63
2021/07/17 09:26:31;;;;;;;11.03;8.15;;;;;;;30.99;42.90;99231.19;129673;1092;114158;-63
2021/07/17 09:29:04;;;;;;;8.03;7.28;;;;;;;31.02;42.00;99228.36;129863;1092;22512;-63
2021/07/17 09:31:57;;;;;;;10.20;7.73;;;;;;;31.01;42.68;99223.97;129740;1093;22579;-64
2021/07/17 09:34:30;;;;;;;13.25;8.20;;;;;;;31.05;42.87;99219.11;129694;1093;114297;-63
2021/07/17 09:37:11;;;;;;;9.23;7.80;;;;;;;31.10;42.64;99230.02;129725;1093;22560;-63
2021/07/17 09:39:45;;;;;;;12.15;8.10;;;;;;;31.14;41.90;99224.39;129688;1093;114166;-63
2021/07/17 09:42:15;;;;;;;10.38;7.70;;;;;;;31.15;42.12;99229.62;129801;1093;22606;-63
2021/07/17 09:44:49;;;;;;;12.00;8.30;;;;;;;31.16;42.20;99216.34;129702;1093;114491;-63
2021/07/17 09:47:19;;;;;;;13.83;7.35;;;;;;;31.21;42.56;99219.53;129760;1092;22584;-63
2021/07/17 09:49:48;;;;;;;10.20;7.75;;;;;;;31.27;42.26;99228.39;129844;1093;22622;-63
2021/07/17 09:52:23;;;;;;;7.83;6.80;;;;;;;31.31;41.17;99219.95;129705;1093;114319;-63
2021/07/17 09:55:06;;;;;;;12.00;7.20;;;;;;;31.35;41.58;99212.28;129776;1093;22573;-63
2021/07/17 09:57:35;;;;;;;10.33;7.63;;;;;;;31.38;41.64;99203.03;129701;1092;113963;-63
2021/07/17 10:00:04;;;;;;;26.73;8.88;;;;;;;31.41;41.67;99207.85;129804;1093;22561;-63
2021/07/17 10:02:51;;;;;;;52.43;10.48;;;;;;;31.45;41.26;99214.29;129637;1093;114161;-63
2021/07/17 10:05:39;;;;;;;13.63;8.15;;;;;;;31.50;41.52;99214.66;129787;1092;22576;-64
2021/07/17 10:08:33;;;;;;;9.85;7.70;;;;;;;31.55;41.44;99208.63;129690;1093;114594;-64
2021/07/17 10:11:25;;;;;;;11.75;7.45;;;;;;;31.59;41.29;99205.80;129837;1093;22536;-63
2021/07/17 10:14:17;;;;;;;20.08;9.18;;;;;;;31.58;40.92;99199.37;129746;1093;23179;-64
2021/07/17 10:16:56;;;;;;;9.90;7.70;;;;;;;31.57;40.73;99200.57;129810;1093;24900;-63
2021/07/17 10:19:28;;;;;;;8.85;7.88;;;;;;;31.56;40.92;99198.16;129849;1093;22569;-64
2021/07/17 10:21:57;;;;;;;11.28;8.20;;;;;;;31.52;40.68;99191.73;129668;1093;113732;-64
2021/07/17 10:24:27;;;;;;;8.45;7.13;;;;;;;31.50;41.30;99194.95;129792;1093;22572;-63
2021/07/17 10:26:56;;;;;;;9.60;7.35;;;;;;;31.50;40.56;99194.95;129685;1093;114283;-63
2021/07/17 10:29:26;;;;;;;9.38;8.05;;;;;;;31.50;41.09;99191.33;129808;1092;22657;-64
2021/07/17 10:31:59;;;;;;;8.45;7.70;;;;;;;31.46;40.47;99188.51;129806;1093;22625;-63
2021/07/17 10:34:34;;;;;;;12.48;8.25;;;;;;;31.44;40.88;99182.51;129675;1092;113186;-63
2021/07/17 10:37:27;;;;;;;11.50;8.28;;;;;;;31.46;40.68;99182.08;129825;1093;23047;-63
2021/07/17 10:40:02;;;;;;;9.00;8.05;;;;;;;31.49;40.45;99176.44;129637;1093;115318;-62
2021/07/17 10:42:30;;;;;;;10.73;8.53;;;;;;;31.53;40.49;99162.36;129773;1091;22570;-62
2021/07/17 10:44:59;;;;;;;8.98;8.05;;;;;;;31.55;40.88;99174.02;129657;1093;114213;-61
2021/07/17 10:47:38;;;;;;;11.05;8.20;;;;;;;31.54;40.97;99161.15;129792;1092;22578;-61
2021/07/17 10:50:12;;;;;;;8.60;7.90;;;;;;;31.64;40.60;99160.30;129784;1092;22572;-62
2021/07/17 10:52:43;;;;;;;10.88;7.83;;;;;;;31.70;40.20;99153.07;129722;1093;113845;-61
2021/07/17 10:55:36;;;;;;;12.38;6.55;;;;;;;31.72;39.35;99152.66;129735;1093;22677;-62
2021/07/17 10:58:11;;;;;;;9.00;7.10;;;;;;;31.70;39.48;99138.98;129698;1093;114077;-62
2021/07/17 11:00:49;;;;;;;7.33;6.63;;;;;;;31.76;39.32;99136.53;129830;1093;22524;-62
2021/07/17 11:03:37;;;;;;;12.88;7.80;;;;;;;31.78;38.19;99143.36;129703;1093;113628;-62
2021/07/17 11:06:24;;;;;;;8.83;7.45;;;;;;;31.82;37.95;99138.52;129815;1093;22543;-62
2021/07/17 11:08:54;;;;;;;8.93;7.70;;;;;;;31.84;38.12;99132.48;129659;1093;113987;-61
2021/07/17 11:11:35;;;;;;;12.45;8.38;;;;;;;31.83;38.83;99131.67;129847;1093;23139;-62
2021/07/17 11:14:07;;;;;;;11.88;7.43;;;;;;;31.90;38.71;99131.63;129812;1092;22579;-61
2021/07/17 11:16:47;;;;;;;8.40;7.23;;;;;;;31.97;38.72;99123.14;129728;1093;113791;-61
2021/07/17 11:19:24;;;;;;;7.98;6.83;;;;;;;32.07;37.86;99112.20;129746;1092;22551;-61
2021/07/17 11:21:54;;;;;;;11.15;6.80;;;;;;;32.14;37.59;99103.72;129731;1092;113840;-61
2021/07/17 11:24:24;;;;;;;9.08;7.58;;;;;;;32.15;38.27;99097.67;129837;1092;22546;-61
2021/07/17 11:27:13;;;;;;;11.20;7.60;;;;;;;32.18;38.05;99096.82;129752;1093;114094;-61
2021/07/17 11:29:45;;;;;;;18.03;8.10;;;;;;;32.26;37.87;99094.80;129752;1092;22525;-61